N230PA LOWL-LKPR
Flight info
| Callsign | N230PA |
|---|---|
| Flight time | N/A |
| Altitude | 9000 |
| Route | LIDSI DCT TIVAP/N0177F080 DCT BUDEX DCT APRAQ |
| Aircraft | DA42/L-SBDGRY/S |
Departure
| Time | 2026-04-15 13:51 |
|---|---|
| Airport | Linz-Hörsching Airport (LOWL) |
Arrival
| Time | N/A |
|---|---|
| Airport | Václav Havel Airport Prague (LKPR) |
| Time | Latitude | Longitude | Altitude | Speed | Heading |
|---|---|---|---|---|---|
| 2026-04-15 13:38 | 48.23799 | 14.18889 | 980 ft | 0 kts | 87° |
| 2026-04-15 13:47 | 48.23542 | 14.18810 | 981 ft | 10 kts | 175° |
| 2026-04-15 13:47 | 48.23473 | 14.18816 | 981 ft | 7 kts | 175° |
| 2026-04-15 13:47 | 48.23469 | 14.18816 | 981 ft | 0 kts | 175° |
| 2026-04-15 13:49 | 48.23453 | 14.18817 | 988 ft | 8 kts | 176° |
| 2026-04-15 13:49 | 48.23362 | 14.18826 | 982 ft | 16 kts | 183° |
| 2026-04-15 13:50 | 48.23324 | 14.18835 | 986 ft | 0 kts | 86° |
| 2026-04-15 13:50 | 48.23324 | 14.18842 | 985 ft | 10 kts | 86° |
| 2026-04-15 13:50 | 48.23339 | 14.19253 | 981 ft | 66 kts | 86° |
| 2026-04-15 13:50 | 48.23382 | 14.20092 | 1062 ft | 88 kts | 87° |
| 2026-04-15 13:51 | 48.23448 | 14.21044 | 1322 ft | 93 kts | 85° |
| 2026-04-15 13:51 | 48.23534 | 14.22046 | 1541 ft | 96 kts | 85° |
| 2026-04-15 13:51 | 48.23678 | 14.23101 | 1785 ft | 106 kts | 73° |
| 2026-04-15 13:51 | 48.23916 | 14.24052 | 2167 ft | 109 kts | 64° |
| 2026-04-15 13:52 | 48.24278 | 14.25235 | 2202 ft | 138 kts | 64° |
| 2026-04-15 13:52 | 48.24692 | 14.26638 | 2242 ft | 153 kts | 68° |
| 2026-04-15 13:52 | 48.25070 | 14.28164 | 2308 ft | 158 kts | 69° |
| 2026-04-15 13:52 | 48.25467 | 14.29708 | 2377 ft | 160 kts | 68° |
| 2026-04-15 13:53 | 48.25873 | 14.31243 | 2424 ft | 156 kts | 68° |
| 2026-04-15 13:53 | 48.26272 | 14.32740 | 2468 ft | 155 kts | 66° |
| 2026-04-15 13:53 | 48.26972 | 14.33908 | 2479 ft | 151 kts | 22° |
| 2026-04-15 13:53 | 48.27955 | 14.34020 | 2504 ft | 143 kts | 337° |
| 2026-04-15 13:54 | 48.28656 | 14.33083 | 2547 ft | 135 kts | 291° |
| 2026-04-15 13:54 | 48.28656 | 14.31734 | 2598 ft | 132 kts | 246° |
| 2026-04-15 13:54 | 48.28168 | 14.30596 | 2769 ft | 122 kts | 243° |
| 2026-04-15 13:54 | 48.27871 | 14.29479 | 2891 ft | 120 kts | 253° |
| 2026-04-15 13:55 | 48.27556 | 14.28308 | 3043 ft | 114 kts | 245° |